sensor_id;sensor_type;location;lat;lon;timestamp;P1;durP1;ratioP1;P2;durP2;ratioP2
17310;SDS011;8773;43.300;0.394;2023-02-15T00:00:08;36.20;;;26.73;;
17310;SDS011;8773;43.300;0.394;2023-02-15T00:02:37;30.23;;;25.53;;
17310;SDS011;8773;43.300;0.394;2023-02-15T00:05:06;31.40;;;26.40;;
17310;SDS011;8773;43.300;0.394;2023-02-15T00:07:36;29.00;;;25.33;;
17310;SDS011;8773;43.300;0.394;2023-02-15T00:10:05;31.07;;;25.80;;
17310;SDS011;8773;43.300;0.394;2023-02-15T00:12:34;28.07;;;24.57;;
17310;SDS011;8773;43.300;0.394;2023-02-15T00:15:02;29.37;;;24.07;;
17310;SDS011;8773;43.300;0.394;2023-02-15T00:17:30;29.97;;;26.27;;
17310;SDS011;8773;43.300;0.394;2023-02-15T00:19:58;29.03;;;25.53;;
17310;SDS011;8773;43.300;0.394;2023-02-15T00:22:26;31.13;;;26.07;;
17310;SDS011;8773;43.300;0.394;2023-02-15T00:24:56;32.60;;;26.60;;
17310;SDS011;8773;43.300;0.394;2023-02-15T00:27:24;31.80;;;26.03;;
17310;SDS011;8773;43.300;0.394;2023-02-15T00:29:52;27.60;;;24.57;;
17310;SDS011;8773;43.300;0.394;2023-02-15T00:32:20;29.53;;;24.27;;
17310;SDS011;8773;43.300;0.394;2023-02-15T00:34:48;28.50;;;23.00;;
17310;SDS011;8773;43.300;0.394;2023-02-15T00:37:16;28.77;;;23.13;;
17310;SDS011;8773;43.300;0.394;2023-02-15T00:39:44;31.20;;;24.47;;
17310;SDS011;8773;43.300;0.394;2023-02-15T00:42:13;29.20;;;24.00;;
17310;SDS011;8773;43.300;0.394;2023-02-15T00:44:41;28.00;;;24.23;;
17310;SDS011;8773;43.300;0.394;2023-02-15T00:47:09;29.27;;;23.90;;
17310;SDS011;8773;43.300;0.394;2023-02-15T00:49:37;33.30;;;24.03;;
17310;SDS011;8773;43.300;0.394;2023-02-15T00:52:05;28.20;;;22.97;;
17310;SDS011;8773;43.300;0.394;2023-02-15T00:54:33;30.03;;;24.53;;
17310;SDS011;8773;43.300;0.394;2023-02-15T00:57:02;28.23;;;25.03;;
17310;SDS011;8773;43.300;0.394;2023-02-15T00:59:31;31.73;;;26.47;;
17310;SDS011;8773;43.300;0.394;2023-02-15T01:01:59;27.73;;;23.93;;
17310;SDS011;8773;43.300;0.394;2023-02-15T01:04:27;27.20;;;23.83;;
17310;SDS011;8773;43.300;0.394;2023-02-15T01:06:55;28.77;;;24.47;;
17310;SDS011;8773;43.300;0.394;2023-02-15T01:09:24;26.93;;;23.17;;
17310;SDS011;8773;43.300;0.394;2023-02-15T01:11:52;26.00;;;22.23;;
17310;SDS011;8773;43.300;0.394;2023-02-15T01:14:20;25.40;;;21.70;;
17310;SDS011;8773;43.300;0.394;2023-02-15T01:16:49;27.33;;;21.97;;
17310;SDS011;8773;43.300;0.394;2023-02-15T01:19:17;27.40;;;21.80;;
17310;SDS011;8773;43.300;0.394;2023-02-15T01:21:46;22.97;;;20.10;;
17310;SDS011;8773;43.300;0.394;2023-02-15T01:24:14;22.30;;;18.23;;
17310;SDS011;8773;43.300;0.394;2023-02-15T01:26:42;22.90;;;19.50;;
17310;SDS011;8773;43.300;0.394;2023-02-15T01:29:10;24.77;;;20.57;;
17310;SDS011;8773;43.300;0.394;2023-02-15T01:31:38;23.03;;;20.53;;
17310;SDS011;8773;43.300;0.394;2023-02-15T01:34:07;23.03;;;18.87;;
17310;SDS011;8773;43.300;0.394;2023-02-15T01:36:36;22.27;;;19.57;;
17310;SDS011;8773;43.300;0.394;2023-02-15T01:39:04;21.97;;;18.47;;
17310;SDS011;8773;43.300;0.394;2023-02-15T01:41:34;25.17;;;20.13;;
17310;SDS011;8773;43.300;0.394;2023-02-15T01:44:02;21.73;;;19.40;;
17310;SDS011;8773;43.300;0.394;2023-02-15T01:46:32;23.57;;;18.93;;
17310;SDS011;8773;43.300;0.394;2023-02-15T01:49:02;21.23;;;18.97;;
17310;SDS011;8773;43.300;0.394;2023-02-15T01:51:38;21.63;;;19.13;;
17310;SDS011;8773;43.300;0.394;2023-02-15T01:54:09;21.30;;;18.43;;
17310;SDS011;8773;43.300;0.394;2023-02-15T01:56:43;21.60;;;18.13;;
17310;SDS011;8773;43.300;0.394;2023-02-15T01:59:12;21.27;;;17.27;;
17310;SDS011;8773;43.300;0.394;2023-02-15T02:01:44;19.33;;;17.37;;
17310;SDS011;8773;43.300;0.394;2023-02-15T02:04:13;20.13;;;17.90;;
17310;SDS011;8773;43.300;0.394;2023-02-15T02:06:46;20.20;;;17.37;;
17310;SDS011;8773;43.300;0.394;2023-02-15T02:09:16;20.00;;;17.67;;
17310;SDS011;8773;43.300;0.394;2023-02-15T02:11:44;19.63;;;17.53;;
17310;SDS011;8773;43.300;0.394;2023-02-15T02:14:14;18.90;;;16.50;;
17310;SDS011;8773;43.300;0.394;2023-02-15T02:16:46;20.00;;;17.20;;
17310;SDS011;8773;43.300;0.394;2023-02-15T02:19:31;21.00;;;18.60;;
17310;SDS011;8773;43.300;0.394;2023-02-15T02:25:22;22.43;;;19.30;;
17310;SDS011;8773;43.300;0.394;2023-02-15T02:28:26;21.40;;;19.17;;
17310;SDS011;8773;43.300;0.394;2023-02-15T02:34:27;19.67;;;17.57;;
17310;SDS011;8773;43.300;0.394;2023-02-15T02:36:58;19.23;;;17.23;;
17310;SDS011;8773;43.300;0.394;2023-02-15T02:39:37;18.80;;;16.70;;
17310;SDS011;8773;43.300;0.394;2023-02-15T02:42:16;18.90;;;17.00;;
17310;SDS011;8773;43.300;0.394;2023-02-15T02:44:53;23.73;;;17.53;;
17310;SDS011;8773;43.300;0.394;2023-02-15T02:47:29;19.40;;;17.30;;
17310;SDS011;8773;43.300;0.394;2023-02-15T02:50:03;21.20;;;18.10;;
17310;SDS011;8773;43.300;0.394;2023-02-15T02:52:38;22.03;;;19.27;;
17310;SDS011;8773;43.300;0.394;2023-02-15T02:55:08;21.50;;;19.03;;
17310;SDS011;8773;43.300;0.394;2023-02-15T02:57:41;20.10;;;18.07;;
17310;SDS011;8773;43.300;0.394;2023-02-15T03:00:13;19.70;;;17.50;;
17310;SDS011;8773;43.300;0.394;2023-02-15T03:02:43;19.27;;;17.27;;
17310;SDS011;8773;43.300;0.394;2023-02-15T03:05:18;19.80;;;16.83;;
17310;SDS011;8773;43.300;0.394;2023-02-15T03:07:49;17.30;;;15.60;;
17310;SDS011;8773;43.300;0.394;2023-02-15T03:10:21;18.00;;;16.17;;
17310;SDS011;8773;43.300;0.394;2023-02-15T03:12:51;18.47;;;16.53;;
17310;SDS011;8773;43.300;0.394;2023-02-15T03:15:20;20.10;;;17.33;;
17310;SDS011;8773;43.300;0.394;2023-02-15T03:17:51;16.73;;;14.93;;
17310;SDS011;8773;43.300;0.394;2023-02-15T03:20:25;17.70;;;15.57;;
17310;SDS011;8773;43.300;0.394;2023-02-15T03:22:58;17.37;;;15.57;;
17310;SDS011;8773;43.300;0.394;2023-02-15T03:25:30;16.07;;;14.37;;
17310;SDS011;8773;43.300;0.394;2023-02-15T03:28:02;16.47;;;14.87;;
17310;SDS011;8773;43.300;0.394;2023-02-15T03:30:34;18.20;;;15.57;;
17310;SDS011;8773;43.300;0.394;2023-02-15T03:33:05;17.27;;;15.50;;
17310;SDS011;8773;43.300;0.394;2023-02-15T03:35:40;17.63;;;15.83;;
17310;SDS011;8773;43.300;0.394;2023-02-15T03:38:16;17.87;;;15.70;;
17310;SDS011;8773;43.300;0.394;2023-02-15T03:40:47;17.20;;;15.47;;
17310;SDS011;8773;43.300;0.394;2023-02-15T03:43:37;15.93;;;14.30;;
17310;SDS011;8773;43.300;0.394;2023-02-15T03:46:13;15.50;;;13.90;;
17310;SDS011;8773;43.300;0.394;2023-02-15T03:48:51;15.50;;;13.90;;
17310;SDS011;8773;43.300;0.394;2023-02-15T03:51:25;15.63;;;14.03;;
17310;SDS011;8773;43.300;0.394;2023-02-15T03:54:03;14.83;;;13.43;;
17310;SDS011;8773;43.300;0.394;2023-02-15T03:56:41;14.60;;;13.27;;
17310;SDS011;8773;43.300;0.394;2023-02-15T03:59:33;15.07;;;13.50;;
17310;SDS011;8773;43.300;0.394;2023-02-15T04:02:20;15.27;;;13.77;;
17310;SDS011;8773;43.300;0.394;2023-02-15T04:04:51;14.80;;;13.40;;
17310;SDS011;8773;43.300;0.394;2023-02-15T04:07:21;14.00;;;12.13;;
17310;SDS011;8773;43.300;0.394;2023-02-15T04:09:49;14.93;;;13.07;;
17310;SDS011;8773;43.300;0.394;2023-02-15T04:12:31;14.07;;;12.60;;
17310;SDS011;8773;43.300;0.394;2023-02-15T04:14:59;14.20;;;12.80;;
17310;SDS011;8773;43.300;0.394;2023-02-15T04:17:44;14.80;;;13.00;;
17310;SDS011;8773;43.300;0.394;2023-02-15T04:20:12;13.80;;;12.40;;
17310;SDS011;8773;43.300;0.394;2023-02-15T04:22:59;13.63;;;12.33;;
17310;SDS011;8773;43.300;0.394;2023-02-15T04:25:44;12.10;;;10.73;;
17310;SDS011;8773;43.300;0.394;2023-02-15T04:28:12;11.77;;;10.67;;
17310;SDS011;8773;43.300;0.394;2023-02-15T04:30:40;11.63;;;10.30;;
17310;SDS011;8773;43.300;0.394;2023-02-15T04:33:08;10.73;;;9.73;;
17310;SDS011;8773;43.300;0.394;2023-02-15T04:35:36;11.27;;;9.67;;
17310;SDS011;8773;43.300;0.394;2023-02-15T04:38:06;10.97;;;9.90;;
17310;SDS011;8773;43.300;0.394;2023-02-15T04:40:34;10.80;;;9.70;;
17310;SDS011;8773;43.300;0.394;2023-02-15T04:43:02;10.13;;;9.23;;
17310;SDS011;8773;43.300;0.394;2023-02-15T04:45:30;10.07;;;9.17;;
17310;SDS011;8773;43.300;0.394;2023-02-15T04:47:58;11.00;;;9.93;;
17310;SDS011;8773;43.300;0.394;2023-02-15T04:50:26;11.57;;;9.10;;
17310;SDS011;8773;43.300;0.394;2023-02-15T04:52:54;11.23;;;10.13;;
17310;SDS011;8773;43.300;0.394;2023-02-15T04:55:23;15.77;;;10.63;;
17310;SDS011;8773;43.300;0.394;2023-02-15T04:57:53;12.00;;;10.67;;
17310;SDS011;8773;43.300;0.394;2023-02-15T05:00:21;12.60;;;11.37;;
17310;SDS011;8773;43.300;0.394;2023-02-15T05:02:49;13.33;;;11.47;;
17310;SDS011;8773;43.300;0.394;2023-02-15T05:05:17;12.97;;;11.23;;
17310;SDS011;8773;43.300;0.394;2023-02-15T05:07:45;12.63;;;11.33;;
17310;SDS011;8773;43.300;0.394;2023-02-15T05:10:13;11.03;;;9.93;;
17310;SDS011;8773;43.300;0.394;2023-02-15T05:12:43;11.40;;;10.30;;
17310;SDS011;8773;43.300;0.394;2023-02-15T05:15:11;10.67;;;8.93;;
17310;SDS011;8773;43.300;0.394;2023-02-15T05:17:39;9.40;;;8.50;;
17310;SDS011;8773;43.300;0.394;2023-02-15T05:20:08;9.27;;;8.43;;
17310;SDS011;8773;43.300;0.394;2023-02-15T05:22:36;8.77;;;8.03;;
17310;SDS011;8773;43.300;0.394;2023-02-15T05:25:05;9.73;;;7.83;;
17310;SDS011;8773;43.300;0.394;2023-02-15T05:27:51;7.77;;;7.10;;
17310;SDS011;8773;43.300;0.394;2023-02-15T05:30:57;8.07;;;7.37;;
17310;SDS011;8773;43.300;0.394;2023-02-15T05:33:30;8.67;;;7.87;;
17310;SDS011;8773;43.300;0.394;2023-02-15T05:35:58;7.90;;;7.10;;
17310;SDS011;8773;43.300;0.394;2023-02-15T05:38:28;7.63;;;6.93;;
17310;SDS011;8773;43.300;0.394;2023-02-15T05:40:56;7.80;;;7.10;;
17310;SDS011;8773;43.300;0.394;2023-02-15T05:43:26;8.23;;;7.53;;
17310;SDS011;8773;43.300;0.394;2023-02-15T05:45:54;7.57;;;6.87;;
17310;SDS011;8773;43.300;0.394;2023-02-15T05:48:23;7.97;;;7.23;;
17310;SDS011;8773;43.300;0.394;2023-02-15T05:50:59;7.53;;;6.83;;
17310;SDS011;8773;43.300;0.394;2023-02-15T05:53:29;8.47;;;7.67;;
17310;SDS011;8773;43.300;0.394;2023-02-15T05:55:58;7.53;;;6.93;;
17310;SDS011;8773;43.300;0.394;2023-02-15T05:58:33;7.97;;;7.13;;
17310;SDS011;8773;43.300;0.394;2023-02-15T06:01:07;8.30;;;7.50;;
17310;SDS011;8773;43.300;0.394;2023-02-15T06:03:36;11.53;;;7.47;;
17310;SDS011;8773;43.300;0.394;2023-02-15T06:06:07;8.70;;;7.90;;
17310;SDS011;8773;43.300;0.394;2023-02-15T06:08:35;8.57;;;7.57;;
17310;SDS011;8773;43.300;0.394;2023-02-15T06:11:04;8.13;;;7.33;;
17310;SDS011;8773;43.300;0.394;2023-02-15T06:13:43;8.57;;;7.87;;
17310;SDS011;8773;43.300;0.394;2023-02-15T06:16:11;7.73;;;7.03;;
17310;SDS011;8773;43.300;0.394;2023-02-15T06:18:39;8.70;;;7.80;;
17310;SDS011;8773;43.300;0.394;2023-02-15T06:21:07;7.17;;;6.57;;
17310;SDS011;8773;43.300;0.394;2023-02-15T06:23:35;7.17;;;6.50;;
17310;SDS011;8773;43.300;0.394;2023-02-15T06:26:03;7.63;;;6.40;;
17310;SDS011;8773;43.300;0.394;2023-02-15T06:28:31;7.13;;;6.63;;
17310;SDS011;8773;43.300;0.394;2023-02-15T06:31:00;6.70;;;6.10;;
17310;SDS011;8773;43.300;0.394;2023-02-15T06:33:28;6.90;;;6.30;;
17310;SDS011;8773;43.300;0.394;2023-02-15T06:36:00;8.67;;;7.23;;
17310;SDS011;8773;43.300;0.394;2023-02-15T06:38:28;7.03;;;6.53;;
17310;SDS011;8773;43.300;0.394;2023-02-15T06:40:56;7.03;;;6.33;;
17310;SDS011;8773;43.300;0.394;2023-02-15T06:43:24;6.97;;;6.37;;
17310;SDS011;8773;43.300;0.394;2023-02-15T06:45:52;7.37;;;6.67;;
17310;SDS011;8773;43.300;0.394;2023-02-15T06:48:22;6.47;;;5.87;;
17310;SDS011;8773;43.300;0.394;2023-02-15T06:50:50;7.47;;;6.40;;
17310;SDS011;8773;43.300;0.394;2023-02-15T06:53:18;9.13;;;6.73;;
17310;SDS011;8773;43.300;0.394;2023-02-15T06:55:46;6.73;;;6.10;;
17310;SDS011;8773;43.300;0.394;2023-02-15T06:58:14;7.50;;;6.80;;
17310;SDS011;8773;43.300;0.394;2023-02-15T07:00:42;6.73;;;6.10;;
17310;SDS011;8773;43.300;0.394;2023-02-15T07:03:12;7.13;;;6.17;;
17310;SDS011;8773;43.300;0.394;2023-02-15T07:05:42;6.43;;;5.87;;
17310;SDS011;8773;43.300;0.394;2023-02-15T07:08:11;6.33;;;5.83;;
17310;SDS011;8773;43.300;0.394;2023-02-15T07:10:39;6.87;;;6.17;;
17310;SDS011;8773;43.300;0.394;2023-02-15T07:13:10;6.60;;;5.93;;
17310;SDS011;8773;43.300;0.394;2023-02-15T07:15:37;6.97;;;5.33;;
17310;SDS011;8773;43.300;0.394;2023-02-15T07:18:05;8.83;;;5.97;;
17310;SDS011;8773;43.300;0.394;2023-02-15T07:20:33;6.33;;;5.77;;
17310;SDS011;8773;43.300;0.394;2023-02-15T07:23:04;6.40;;;5.80;;
17310;SDS011;8773;43.300;0.394;2023-02-15T07:25:32;5.90;;;5.30;;
17310;SDS011;8773;43.300;0.394;2023-02-15T07:28:01;6.60;;;5.60;;
17310;SDS011;8773;43.300;0.394;2023-02-15T07:30:31;7.43;;;6.07;;
17310;SDS011;8773;43.300;0.394;2023-02-15T07:32:59;6.87;;;6.27;;
17310;SDS011;8773;43.300;0.394;2023-02-15T07:35:48;7.17;;;6.40;;
17310;SDS011;8773;43.300;0.394;2023-02-15T07:38:18;8.13;;;6.40;;
17310;SDS011;8773;43.300;0.394;2023-02-15T07:40:46;7.10;;;6.37;;
17310;SDS011;8773;43.300;0.394;2023-02-15T07:43:14;6.80;;;6.20;;
17310;SDS011;8773;43.300;0.394;2023-02-15T07:45:43;7.23;;;6.10;;
17310;SDS011;8773;43.300;0.394;2023-02-15T07:48:11;7.80;;;6.17;;
17310;SDS011;8773;43.300;0.394;2023-02-15T07:50:39;7.43;;;6.43;;
17310;SDS011;8773;43.300;0.394;2023-02-15T07:53:07;6.87;;;6.27;;
17310;SDS011;8773;43.300;0.394;2023-02-15T07:55:36;10.20;;;6.77;;
17310;SDS011;8773;43.300;0.394;2023-02-15T07:58:05;7.03;;;6.33;;
17310;SDS011;8773;43.300;0.394;2023-02-15T08:00:33;7.30;;;6.20;;
17310;SDS011;8773;43.300;0.394;2023-02-15T08:03:24;7.30;;;6.60;;
17310;SDS011;8773;43.300;0.394;2023-02-15T08:05:56;8.00;;;7.20;;
17310;SDS011;8773;43.300;0.394;2023-02-15T08:08:26;8.00;;;6.70;;
17310;SDS011;8773;43.300;0.394;2023-02-15T08:10:59;7.60;;;6.93;;
17310;SDS011;8773;43.300;0.394;2023-02-15T08:13:46;9.77;;;6.70;;
17310;SDS011;8773;43.300;0.394;2023-02-15T08:16:24;7.40;;;6.70;;
17310;SDS011;8773;43.300;0.394;2023-02-15T08:18:54;7.83;;;6.53;;
17310;SDS011;8773;43.300;0.394;2023-02-15T08:21:23;7.40;;;6.50;;
17310;SDS011;8773;43.300;0.394;2023-02-15T08:23:53;7.53;;;6.47;;
17310;SDS011;8773;43.300;0.394;2023-02-15T08:26:23;8.03;;;5.73;;
17310;SDS011;8773;43.300;0.394;2023-02-15T08:28:51;8.77;;;6.27;;
17310;SDS011;8773;43.300;0.394;2023-02-15T08:31:23;9.77;;;6.83;;
17310;SDS011;8773;43.300;0.394;2023-02-15T08:33:52;6.90;;;6.27;;
17310;SDS011;8773;43.300;0.394;2023-02-15T08:36:22;6.43;;;5.83;;
17310;SDS011;8773;43.300;0.394;2023-02-15T08:38:51;8.90;;;6.43;;
17310;SDS011;8773;43.300;0.394;2023-02-15T08:41:20;7.90;;;6.57;;
17310;SDS011;8773;43.300;0.394;2023-02-15T08:43:51;9.40;;;6.77;;
17310;SDS011;8773;43.300;0.394;2023-02-15T08:46:21;6.77;;;5.93;;
17310;SDS011;8773;43.300;0.394;2023-02-15T08:48:50;8.50;;;6.43;;
17310;SDS011;8773;43.300;0.394;2023-02-15T08:51:20;8.83;;;6.13;;
17310;SDS011;8773;43.300;0.394;2023-02-15T08:53:49;8.83;;;6.10;;
17310;SDS011;8773;43.300;0.394;2023-02-15T08:56:20;9.20;;;6.00;;
17310;SDS011;8773;43.300;0.394;2023-02-15T08:58:51;7.53;;;6.60;;
17310;SDS011;8773;43.300;0.394;2023-02-15T09:01:21;8.00;;;5.80;;
17310;SDS011;8773;43.300;0.394;2023-02-15T09:03:51;8.43;;;6.57;;
17310;SDS011;8773;43.300;0.394;2023-02-15T09:06:22;11.20;;;6.07;;
17310;SDS011;8773;43.300;0.394;2023-02-15T09:08:50;6.93;;;5.70;;
17310;SDS011;8773;43.300;0.394;2023-02-15T09:11:19;6.87;;;6.17;;
17310;SDS011;8773;43.300;0.394;2023-02-15T09:13:53;7.73;;;6.23;;
17310;SDS011;8773;43.300;0.394;2023-02-15T09:16:23;11.97;;;6.30;;
17310;SDS011;8773;43.300;0.394;2023-02-15T09:18:52;11.00;;;6.27;;
17310;SDS011;8773;43.300;0.394;2023-02-15T09:21:21;18.10;;;6.60;;
17310;SDS011;8773;43.300;0.394;2023-02-15T09:23:55;13.83;;;6.80;;
17310;SDS011;8773;43.300;0.394;2023-02-15T09:26:26;9.80;;;5.83;;
17310;SDS011;8773;43.300;0.394;2023-02-15T09:28:58;10.77;;;6.43;;
17310;SDS011;8773;43.300;0.394;2023-02-15T09:31:28;8.70;;;5.77;;
17310;SDS011;8773;43.300;0.394;2023-02-15T09:33:58;9.43;;;5.27;;
17310;SDS011;8773;43.300;0.394;2023-02-15T09:36:28;8.47;;;5.47;;
17310;SDS011;8773;43.300;0.394;2023-02-15T09:39:01;5.67;;;4.73;;
17310;SDS011;8773;43.300;0.394;2023-02-15T09:41:47;5.07;;;4.70;;
17310;SDS011;8773;43.300;0.394;2023-02-15T09:44:33;4.90;;;4.50;;
17310;SDS011;8773;43.300;0.394;2023-02-15T09:47:23;7.13;;;5.40;;
17310;SDS011;8773;43.300;0.394;2023-02-15T09:50:06;6.03;;;4.73;;
17310;SDS011;8773;43.300;0.394;2023-02-15T09:52:54;5.27;;;4.87;;
17310;SDS011;8773;43.300;0.394;2023-02-15T09:55:38;5.37;;;4.90;;
17310;SDS011;8773;43.300;0.394;2023-02-15T09:58:16;5.87;;;5.00;;
17310;SDS011;8773;43.300;0.394;2023-02-15T10:01:05;5.93;;;5.27;;
17310;SDS011;8773;43.300;0.394;2023-02-15T10:03:42;5.80;;;5.27;;
17310;SDS011;8773;43.300;0.394;2023-02-15T10:12:08;6.70;;;4.90;;
17310;SDS011;8773;43.300;0.394;2023-02-15T10:18:01;6.47;;;5.77;;
17310;SDS011;8773;43.300;0.394;2023-02-15T10:20:54;6.57;;;5.70;;
17310;SDS011;8773;43.300;0.394;2023-02-15T10:23:30;6.93;;;5.80;;
17310;SDS011;8773;43.300;0.394;2023-02-15T10:26:11;6.80;;;5.03;;
17310;SDS011;8773;43.300;0.394;2023-02-15T10:28:43;5.97;;;5.37;;
17310;SDS011;8773;43.300;0.394;2023-02-15T10:31:17;6.47;;;5.17;;
17310;SDS011;8773;43.300;0.394;2023-02-15T10:34:09;7.43;;;5.63;;
17310;SDS011;8773;43.300;0.394;2023-02-15T10:36:48;8.37;;;5.77;;
17310;SDS011;8773;43.300;0.394;2023-02-15T10:39:39;7.90;;;5.40;;
17310;SDS011;8773;43.300;0.394;2023-02-15T10:42:19;7.93;;;5.33;;
17310;SDS011;8773;43.300;0.394;2023-02-15T10:45:04;8.80;;;5.23;;
17310;SDS011;8773;43.300;0.394;2023-02-15T10:47:42;8.47;;;5.43;;
17310;SDS011;8773;43.300;0.394;2023-02-15T10:50:29;8.30;;;6.13;;
17310;SDS011;8773;43.300;0.394;2023-02-15T10:53:13;6.27;;;5.57;;
17310;SDS011;8773;43.300;0.394;2023-02-15T10:55:55;4.90;;;4.47;;
17310;SDS011;8773;43.300;0.394;2023-02-15T10:58:31;4.87;;;4.53;;
17310;SDS011;8773;43.300;0.394;2023-02-15T11:01:12;6.13;;;4.60;;
17310;SDS011;8773;43.300;0.394;2023-02-15T11:03:51;4.17;;;3.77;;
17310;SDS011;8773;43.300;0.394;2023-02-15T11:06:37;4.27;;;3.50;;
17310;SDS011;8773;43.300;0.394;2023-02-15T11:09:14;4.53;;;3.63;;
17310;SDS011;8773;43.300;0.394;2023-02-15T11:11:50;5.23;;;4.00;;
17310;SDS011;8773;43.300;0.394;2023-02-15T11:14:35;4.40;;;3.40;;
17310;SDS011;8773;43.300;0.394;2023-02-15T11:17:09;4.00;;;3.53;;
17310;SDS011;8773;43.300;0.394;2023-02-15T11:19:41;4.47;;;3.37;;
17310;SDS011;8773;43.300;0.394;2023-02-15T11:22:16;5.00;;;3.10;;
17310;SDS011;8773;43.300;0.394;2023-02-15T11:24:44;4.47;;;3.80;;
17310;SDS011;8773;43.300;0.394;2023-02-15T11:27:17;3.07;;;2.87;;
17310;SDS011;8773;43.300;0.394;2023-02-15T11:29:55;3.13;;;2.80;;
17310;SDS011;8773;43.300;0.394;2023-02-15T11:32:28;3.30;;;3.00;;
17310;SDS011;8773;43.300;0.394;2023-02-15T11:34:59;2.97;;;2.63;;
17310;SDS011;8773;43.300;0.394;2023-02-15T11:37:34;3.23;;;3.00;;
17310;SDS011;8773;43.300;0.394;2023-02-15T11:40:14;3.27;;;2.97;;
17310;SDS011;8773;43.300;0.394;2023-02-15T11:42:47;3.93;;;3.00;;
17310;SDS011;8773;43.300;0.394;2023-02-15T11:45:19;3.97;;;2.50;;
17310;SDS011;8773;43.300;0.394;2023-02-15T11:47:52;2.73;;;2.60;;
17310;SDS011;8773;43.300;0.394;2023-02-15T11:50:22;2.47;;;2.37;;
17310;SDS011;8773;43.300;0.394;2023-02-15T11:52:56;2.37;;;2.07;;
17310;SDS011;8773;43.300;0.394;2023-02-15T11:55:27;1.80;;;1.70;;
17310;SDS011;8773;43.300;0.394;2023-02-15T11:57:57;2.30;;;2.20;;
17310;SDS011;8773;43.300;0.394;2023-02-15T12:00:33;2.13;;;2.03;;
17310;SDS011;8773;43.300;0.394;2023-02-15T12:03:07;3.97;;;2.47;;
17310;SDS011;8773;43.300;0.394;2023-02-15T12:05:42;2.60;;;2.33;;
17310;SDS011;8773;43.300;0.394;2023-02-15T12:08:17;2.27;;;2.17;;
17310;SDS011;8773;43.300;0.394;2023-02-15T12:10:56;2.03;;;1.60;;
17310;SDS011;8773;43.300;0.394;2023-02-15T12:13:28;2.20;;;2.10;;
17310;SDS011;8773;43.300;0.394;2023-02-15T12:15:57;2.40;;;2.20;;
17310;SDS011;8773;43.300;0.394;2023-02-15T12:18:36;3.10;;;2.90;;
17310;SDS011;8773;43.300;0.394;2023-02-15T12:21:07;2.40;;;2.30;;
17310;SDS011;8773;43.300;0.394;2023-02-15T12:23:42;2.53;;;2.40;;
17310;SDS011;8773;43.300;0.394;2023-02-15T12:26:22;1.80;;;1.70;;
17310;SDS011;8773;43.300;0.394;2023-02-15T12:28:51;2.50;;;2.30;;
17310;SDS011;8773;43.300;0.394;2023-02-15T12:31:24;1.80;;;1.70;;
17310;SDS011;8773;43.300;0.394;2023-02-15T12:33:59;2.97;;;2.20;;
17310;SDS011;8773;43.300;0.394;2023-02-15T12:36:30;2.30;;;2.10;;
17310;SDS011;8773;43.300;0.394;2023-02-15T12:39:20;1.87;;;1.87;;
17310;SDS011;8773;43.300;0.394;2023-02-15T12:44:52;1.70;;;1.60;;
17310;SDS011;8773;43.300;0.394;2023-02-15T12:47:22;1.40;;;1.30;;
17310;SDS011;8773;43.300;0.394;2023-02-15T12:52:50;1.43;;;1.33;;
17310;SDS011;8773;43.300;0.394;2023-02-15T12:55:22;1.70;;;1.60;;
17310;SDS011;8773;43.300;0.394;2023-02-15T12:58:06;3.80;;;1.50;;
17310;SDS011;8773;43.300;0.394;2023-02-15T13:00:38;1.60;;;1.50;;
17310;SDS011;8773;43.300;0.394;2023-02-15T13:03:13;1.60;;;1.60;;
17310;SDS011;8773;43.300;0.394;2023-02-15T13:05:44;1.50;;;1.50;;
17310;SDS011;8773;43.300;0.394;2023-02-15T13:08:16;1.73;;;1.63;;
17310;SDS011;8773;43.300;0.394;2023-02-15T13:10:54;1.47;;;1.47;;
17310;SDS011;8773;43.300;0.394;2023-02-15T13:13:24;1.83;;;1.73;;
17310;SDS011;8773;43.300;0.394;2023-02-15T13:15:56;1.60;;;1.60;;
17310;SDS011;8773;43.300;0.394;2023-02-15T13:18:32;1.80;;;1.70;;
17310;SDS011;8773;43.300;0.394;2023-02-15T13:21:05;1.70;;;1.60;;
17310;SDS011;8773;43.300;0.394;2023-02-15T13:23:38;1.80;;;1.70;;
17310;SDS011;8773;43.300;0.394;2023-02-15T13:26:13;1.83;;;1.73;;
17310;SDS011;8773;43.300;0.394;2023-02-15T13:28:46;1.70;;;1.57;;
17310;SDS011;8773;43.300;0.394;2023-02-15T13:31:17;2.00;;;1.90;;
17310;SDS011;8773;43.300;0.394;2023-02-15T13:33:49;2.03;;;1.93;;
17310;SDS011;8773;43.300;0.394;2023-02-15T13:36:22;1.90;;;1.80;;
17310;SDS011;8773;43.300;0.394;2023-02-15T13:39:04;1.90;;;1.80;;
17310;SDS011;8773;43.300;0.394;2023-02-15T13:41:46;2.00;;;1.90;;
17310;SDS011;8773;43.300;0.394;2023-02-15T13:44:21;2.23;;;2.07;;
17310;SDS011;8773;43.300;0.394;2023-02-15T13:47:09;1.90;;;1.80;;
17310;SDS011;8773;43.300;0.394;2023-02-15T13:49:48;2.10;;;1.90;;
17310;SDS011;8773;43.300;0.394;2023-02-15T13:52:29;3.27;;;1.80;;
17310;SDS011;8773;43.300;0.394;2023-02-15T13:58:16;1.90;;;1.80;;
17310;SDS011;8773;43.300;0.394;2023-02-15T14:01:09;1.70;;;1.70;;
17310;SDS011;8773;43.300;0.394;2023-02-15T14:06:46;1.90;;;1.80;;
17310;SDS011;8773;43.300;0.394;2023-02-15T14:09:26;2.20;;;2.10;;
17310;SDS011;8773;43.300;0.394;2023-02-15T14:12:11;2.20;;;1.90;;
17310;SDS011;8773;43.300;0.394;2023-02-15T14:17:49;2.20;;;2.10;;
17310;SDS011;8773;43.300;0.394;2023-02-15T14:20:36;2.10;;;1.87;;
17310;SDS011;8773;43.300;0.394;2023-02-15T14:23:15;2.17;;;2.07;;
17310;SDS011;8773;43.300;0.394;2023-02-15T14:25:57;1.93;;;1.83;;
17310;SDS011;8773;43.300;0.394;2023-02-15T14:28:32;2.43;;;2.27;;
17310;SDS011;8773;43.300;0.394;2023-02-15T14:31:09;2.10;;;1.90;;
17310;SDS011;8773;43.300;0.394;2023-02-15T14:33:41;2.30;;;1.90;;
17310;SDS011;8773;43.300;0.394;2023-02-15T14:36:15;2.10;;;2.00;;
17310;SDS011;8773;43.300;0.394;2023-02-15T14:38:50;2.57;;;2.37;;
17310;SDS011;8773;43.300;0.394;2023-02-15T14:41:25;1.95;;;1.85;;
17310;SDS011;8773;43.300;0.394;2023-02-15T14:44:01;1.90;;;1.80;;
17310;SDS011;8773;43.300;0.394;2023-02-15T14:46:41;2.03;;;1.93;;
17310;SDS011;8773;43.300;0.394;2023-02-15T14:49:15;1.93;;;1.90;;
17310;SDS011;8773;43.300;0.394;2023-02-15T14:51:57;2.20;;;2.10;;
17310;SDS011;8773;43.300;0.394;2023-02-15T14:57:32;2.38;;;2.17;;
17310;SDS011;8773;43.300;0.394;2023-02-15T15:00:15;2.75;;;2.10;;
17310;SDS011;8773;43.300;0.394;2023-02-15T15:03:17;2.50;;;2.30;;
17310;SDS011;8773;43.300;0.394;2023-02-15T15:05:50;2.60;;;2.40;;
17310;SDS011;8773;43.300;0.394;2023-02-15T15:08:25;2.50;;;2.30;;
17310;SDS011;8773;43.300;0.394;2023-02-15T15:14:09;2.38;;;2.17;;
17310;SDS011;8773;43.300;0.394;2023-02-15T15:17:00;2.83;;;2.40;;
17310;SDS011;8773;43.300;0.394;2023-02-15T15:22:40;2.63;;;2.53;;
17310;SDS011;8773;43.300;0.394;2023-02-15T15:25:10;15.97;;;14.03;;
17310;SDS011;8773;43.300;0.394;2023-02-15T15:27:53;13.57;;;11.40;;
17310;SDS011;8773;43.300;0.394;2023-02-15T15:36:10;3.53;;;3.33;;
17310;SDS011;8773;43.300;0.394;2023-02-15T15:38:54;4.82;;;3.25;;
17310;SDS011;8773;43.300;0.394;2023-02-15T15:41:40;3.33;;;3.13;;
17310;SDS011;8773;43.300;0.394;2023-02-15T15:44:30;3.93;;;3.63;;
17310;SDS011;8773;43.300;0.394;2023-02-15T15:47:27;3.23;;;3.03;;
17310;SDS011;8773;43.300;0.394;2023-02-15T15:50:10;3.17;;;2.97;;
17310;SDS011;8773;43.300;0.394;2023-02-15T15:52:41;3.40;;;3.20;;
17310;SDS011;8773;43.300;0.394;2023-02-15T15:55:15;3.37;;;3.00;;
17310;SDS011;8773;43.300;0.394;2023-02-15T15:57:46;2.53;;;2.43;;
17310;SDS011;8773;43.300;0.394;2023-02-15T16:00:24;2.97;;;2.77;;
17310;SDS011;8773;43.300;0.394;2023-02-15T16:03:00;3.10;;;2.90;;
17310;SDS011;8773;43.300;0.394;2023-02-15T16:05:34;2.90;;;2.70;;
17310;SDS011;8773;43.300;0.394;2023-02-15T16:08:05;3.03;;;2.80;;
17310;SDS011;8773;43.300;0.394;2023-02-15T16:10:34;2.80;;;2.60;;
17310;SDS011;8773;43.300;0.394;2023-02-15T16:13:04;2.83;;;2.73;;
17310;SDS011;8773;43.300;0.394;2023-02-15T16:15:34;2.30;;;2.20;;